createdAt,value
2023-09-01T00:04:18.670Z,100617.72
2023-09-01T00:09:20.029Z,100612.34
2023-09-01T00:14:21.382Z,100600.09
2023-09-01T00:19:24.176Z,100604.75
2023-09-01T00:24:25.785Z,100594.91
2023-09-01T00:29:27.255Z,100602.88
2023-09-01T00:34:31.056Z,100590.41
2023-09-01T00:39:32.429Z,100600.13
2023-09-01T00:44:33.775Z,100606.63
2023-09-01T00:49:38.613Z,100601.81
2023-09-01T00:54:39.984Z,100605.81
2023-09-01T00:59:41.513Z,100602.81
2023-09-01T01:04:42.891Z,100587.16
2023-09-01T01:09:50.473Z,100581.31
2023-09-01T01:14:54.253Z,100585.22
2023-09-01T01:19:57.220Z,100588.53
2023-09-01T01:24:58.663Z,100592.03
2023-09-01T01:30:01.856Z,100578.00
2023-09-01T01:35:05.372Z,100585.78
2023-09-01T01:40:08.693Z,100579.16
2023-09-01T01:45:12.435Z,100585.34
2023-09-01T01:50:13.787Z,100585.34
2023-09-01T01:55:15.179Z,100587.03
2023-09-01T02:00:16.705Z,100589.13
2023-09-01T02:05:18.343Z,100585.44
2023-09-01T02:10:20.366Z,100584.41
2023-09-01T02:15:21.742Z,100574.47
2023-09-01T02:20:23.306Z,100580.78
2023-09-01T02:25:24.679Z,100588.78
2023-09-01T02:30:26.061Z,100589.03
2023-09-01T02:35:27.529Z,100586.72
2023-09-01T02:40:29.157Z,100584.66
2023-09-01T02:45:30.598Z,100585.25
2023-09-01T02:50:31.973Z,100578.38
2023-09-01T02:55:33.380Z,100573.22
2023-09-01T03:00:34.771Z,100577.34
2023-09-01T03:05:37.055Z,100570.59
2023-09-01T03:10:38.744Z,100563.59
2023-09-01T03:15:41.263Z,100558.34
2023-09-01T03:20:42.639Z,100550.91
2023-09-01T03:25:44.032Z,100565.78
2023-09-01T03:30:45.405Z,100561.06
2023-09-01T03:35:46.822Z,100566.78
2023-09-01T03:40:48.234Z,100569.84
2023-09-01T03:45:49.632Z,100566.78
2023-09-01T03:51:06.076Z,100573.19
2023-09-01T03:56:08.818Z,100574.81
2023-09-01T04:01:13.634Z,100575.81
2023-09-01T04:06:15.807Z,100564.28
2023-09-01T04:11:17.407Z,100567.59
2023-09-01T04:16:18.798Z,100566.22
2023-09-01T04:21:20.606Z,100569.63
2023-09-01T04:26:22.134Z,100563.47
2023-09-01T04:31:23.539Z,100568.84
2023-09-01T04:36:33.350Z,100566.56
2023-09-01T04:41:42.951Z,100582.50
2023-09-01T04:46:44.348Z,100590.06
2023-09-01T04:51:45.694Z,100577.34
2023-09-01T04:56:47.269Z,100564.88
2023-09-01T05:01:48.644Z,100561.56
2023-09-01T05:06:50.026Z,100565.56
2023-09-01T05:11:51.433Z,100573.00
2023-09-01T05:16:52.917Z,100582.78
2023-09-01T05:21:55.609Z,100582.19
2023-09-01T05:26:56.984Z,100587.81
2023-09-01T05:31:58.402Z,100593.88
2023-09-01T05:36:59.775Z,100584.03
2023-09-01T05:42:01.174Z,100580.81
2023-09-01T05:47:04.837Z,100585.63
2023-09-01T05:52:06.457Z,100584.00
2023-09-01T05:57:07.915Z,100575.66
2023-09-01T06:02:09.295Z,100578.50
2023-09-01T06:07:10.928Z,100589.63
2023-09-01T06:12:12.681Z,100596.41
2023-09-01T06:17:14.070Z,100604.28
2023-09-01T06:22:15.510Z,100597.31
2023-09-01T06:27:16.954Z,100602.25
2023-09-01T06:32:18.352Z,100609.09
2023-09-01T06:37:19.707Z,100606.25
2023-09-01T06:42:21.067Z,100610.88
2023-09-01T06:47:22.842Z,100611.91
2023-09-01T06:52:24.217Z,100610.28
2023-09-01T06:57:25.578Z,100621.84
2023-09-01T07:02:26.951Z,100603.66
2023-09-01T07:07:28.312Z,100615.44
2023-09-01T07:12:29.665Z,100606.84
2023-09-01T07:17:31.193Z,100611.91
2023-09-01T07:22:32.874Z,100610.41
2023-09-01T07:27:34.231Z,100610.88
2023-09-01T07:32:35.696Z,100606.88
2023-09-01T07:37:37.106Z,100609.56
2023-09-01T07:42:38.525Z,100611.97
2023-09-01T07:47:40.029Z,100616.91
2023-09-01T07:52:41.450Z,100630.88
2023-09-01T07:57:43.191Z,100629.97
2023-09-01T08:02:44.859Z,100622.97
2023-09-01T08:07:47.751Z,100629.16
2023-09-01T08:12:49.142Z,100621.72
2023-09-01T08:17:51.369Z,100620.69
2023-09-01T08:22:52.918Z,100626.16
2023-09-01T08:27:54.281Z,100628.34
2023-09-01T08:32:55.696Z,100627.09
2023-09-01T08:37:57.089Z,100628.78
2023-09-01T08:42:59.589Z,100629.31
2023-09-01T08:48:04.733Z,100629.00
2023-09-01T08:53:06.726Z,100628.59
2023-09-01T08:58:08.180Z,100621.59
2023-09-01T09:03:11.676Z,100625.69
2023-09-01T09:08:13.744Z,100623.75
2023-09-01T09:13:22.226Z,100624.84
2023-09-01T09:18:30.591Z,100623.09
2023-09-01T09:23:45.523Z,100621.34
2023-09-01T09:28:49.808Z,100628.88
2023-09-01T09:33:51.628Z,100620.78
2023-09-01T09:38:53.404Z,100620.22
2023-09-01T09:43:54.799Z,100610.31
2023-09-01T09:48:57.545Z,100612.78
2023-09-01T09:53:59.842Z,100609.09
2023-09-01T09:59:04.723Z,100613.03
2023-09-01T10:04:06.301Z,100607.06
2023-09-01T10:09:09.370Z,100611.78
2023-09-01T10:14:11.572Z,100606.97
2023-09-01T10:19:13.540Z,100615.66
2023-09-01T10:24:15.724Z,100617.50
2023-09-01T10:29:29.903Z,100614.53
2023-09-01T10:34:31.269Z,100617.19
2023-09-01T10:39:32.794Z,100610.41
2023-09-01T10:44:40.212Z,100608.53
2023-09-01T10:49:57.224Z,100610.41
2023-09-01T10:55:01.446Z,100614.44
2023-09-01T11:00:22.853Z,100610.34
2023-09-01T11:05:37.963Z,100605.16
2023-09-01T11:10:39.410Z,100621.91
2023-09-01T11:15:44.544Z,100622.22
2023-09-01T11:20:47.072Z,100631.13
2023-09-01T11:25:49.267Z,100632.91
2023-09-01T11:30:57.567Z,100629.13
2023-09-01T11:36:04.884Z,100620.22
2023-09-01T11:41:07.465Z,100624.66
2023-09-01T11:46:09.351Z,100631.63
2023-09-01T11:51:10.993Z,100627.38
2023-09-01T11:56:23.709Z,100637.56
2023-09-01T12:01:28.249Z,100635.88
2023-09-01T12:06:29.714Z,100642.28
2023-09-01T12:11:31.115Z,100636.19
2023-09-01T12:16:32.670Z,100637.63
2023-09-01T12:21:34.107Z,100648.94
2023-09-01T12:26:35.765Z,100642.94
2023-09-01T12:31:37.524Z,100645.06
2023-09-01T12:36:38.971Z,100635.53
2023-09-01T12:41:40.370Z,100626.44
2023-09-01T12:46:41.864Z,100630.63
2023-09-01T12:51:43.324Z,100634.25
2023-09-01T12:56:44.764Z,100646.22
2023-09-01T13:01:46.170Z,100652.88
2023-09-01T13:06:48.734Z,100647.88
2023-09-01T13:11:50.173Z,100656.50
2023-09-01T13:16:51.576Z,100645.44
2023-09-01T13:21:53.006Z,100645.72
2023-09-01T13:26:54.366Z,100642.06
2023-09-01T13:31:55.764Z,100642.63
2023-09-01T13:36:57.230Z,100648.47
2023-09-01T13:41:58.665Z,100642.63
2023-09-01T13:47:00.687Z,100644.75
2023-09-01T13:52:02.105Z,100637.81
2023-09-01T13:57:03.514Z,100634.13
2023-09-01T14:02:05.222Z,100639.28
2023-09-01T14:07:06.696Z,100650.72
2023-09-01T14:12:08.265Z,100643.66
2023-09-01T14:17:09.659Z,100646.34
2023-09-01T14:22:11.181Z,100636.47
2023-09-01T14:27:12.564Z,100636.50
2023-09-01T14:32:14.155Z,100629.59
2023-09-01T14:37:15.531Z,100628.25
2023-09-01T14:42:16.888Z,100631.19
2023-09-01T14:47:18.260Z,100635.19
2023-09-01T14:52:19.620Z,100633.56
2023-09-01T14:57:21.040Z,100623.19
2023-09-01T15:02:22.426Z,100636.75
2023-09-01T15:07:24.702Z,100680.34
2023-09-01T15:12:27.328Z,100676.91
2023-09-01T15:17:28.827Z,100675.19
2023-09-01T15:22:30.231Z,100692.09
2023-09-01T15:27:31.630Z,100706.16
2023-09-01T15:32:33.076Z,100703.97
2023-09-01T15:37:34.466Z,100718.25
2023-09-01T15:42:35.835Z,100732.38
2023-09-01T15:47:37.274Z,100737.69
2023-09-01T15:52:38.713Z,100740.44
2023-09-01T15:57:42.319Z,100738.56
2023-09-01T16:02:43.740Z,100739.81
2023-09-01T16:07:45.199Z,100741.47
2023-09-01T16:12:46.903Z,100736.84
2023-09-01T16:17:48.339Z,100735.59
2023-09-01T16:22:49.774Z,100737.97
2023-09-01T16:27:53.448Z,100751.94
2023-09-01T16:32:54.957Z,100750.50
2023-09-01T16:37:56.350Z,100754.66
2023-09-01T16:42:58.148Z,100747.47
2023-09-01T16:48:02.619Z,100754.97
2023-09-01T16:53:04.244Z,100766.56
2023-09-01T16:58:05.603Z,100780.41
2023-09-01T17:03:07.075Z,100781.84
2023-09-01T17:08:08.461Z,100791.09
2023-09-01T17:13:10.330Z,100786.19
2023-09-01T17:18:11.731Z,100795.75
2023-09-01T17:23:13.472Z,100799.41
2023-09-01T17:28:14.950Z,100791.41
2023-09-01T17:33:16.650Z,100794.84
2023-09-01T17:38:18.441Z,100811.00
2023-09-01T17:43:20.116Z,100823.50
2023-09-01T17:48:21.790Z,100822.78
2023-09-01T17:53:23.156Z,100829.06
2023-09-01T17:58:24.521Z,100841.81
2023-09-01T18:03:25.972Z,100841.91
2023-09-01T18:08:28.484Z,100854.56
2023-09-01T18:13:29.859Z,100852.59
2023-09-01T18:18:33.999Z,100870.44
2023-09-01T18:23:35.738Z,100868.31
2023-09-01T18:28:47.294Z,100884.75
2023-09-01T18:33:49.859Z,100897.25
2023-09-01T18:38:52.170Z,100913.66
2023-09-01T18:43:56.307Z,100899.78
2023-09-01T18:49:01.682Z,100924.41
2023-09-01T18:54:09.296Z,100922.63
2023-09-01T18:59:10.675Z,100928.94
2023-09-01T19:04:12.258Z,100946.50
2023-09-01T19:09:16.416Z,100966.50
2023-09-01T19:14:20.837Z,100971.84
2023-09-01T19:19:22.565Z,100980.59
2023-09-01T19:24:24.830Z,100975.47
2023-09-01T19:29:26.271Z,100978.38
2023-09-01T19:34:27.826Z,100978.66
2023-09-01T19:39:29.433Z,100984.44
2023-09-01T19:44:33.737Z,100990.19
2023-09-01T19:49:36.105Z,100996.22
2023-09-01T19:54:37.788Z,101001.69
2023-09-01T19:59:39.210Z,101006.63
2023-09-01T20:04:40.623Z,101006.50
2023-09-01T20:09:42.000Z,101011.19
2023-09-01T20:14:44.184Z,101017.31
2023-09-01T20:19:45.623Z,101016.72
2023-09-01T20:24:47.014Z,101021.81
2023-09-01T20:29:48.388Z,101022.03
2023-09-01T20:34:49.742Z,101037.41
2023-09-01T20:39:51.124Z,101034.44
2023-09-01T20:44:52.859Z,101030.84
2023-09-01T20:49:54.215Z,101032.69
2023-09-01T20:54:55.581Z,101035.91
2023-09-01T20:59:56.980Z,101053.03
2023-09-01T21:04:58.342Z,101056.25
2023-09-01T21:09:59.969Z,101054.41
2023-09-01T21:15:01.835Z,101065.31
2023-09-01T21:20:04.482Z,101060.66
2023-09-01T21:25:05.999Z,101064.09
2023-09-01T21:30:13.609Z,101065.63
2023-09-01T21:35:15.296Z,101070.94
2023-09-01T21:40:16.744Z,101077.06
2023-09-01T21:45:18.256Z,101081.75
2023-09-01T21:50:19.641Z,101080.31
2023-09-01T21:55:21.709Z,101086.78
2023-09-01T22:00:23.244Z,101091.66
2023-09-01T22:05:24.650Z,101098.56
2023-09-01T22:10:26.013Z,101095.78
2023-09-01T22:15:27.366Z,101091.75
2023-09-01T22:20:28.755Z,101102.66
2023-09-01T22:25:30.185Z,101095.56
2023-09-01T22:30:31.577Z,101098.19
2023-09-01T22:35:32.966Z,101101.03
2023-09-01T22:40:34.396Z,101107.53
2023-09-01T22:45:35.787Z,101103.09
2023-09-01T22:50:37.160Z,101108.34
2023-09-01T22:55:38.573Z,101115.66
2023-09-01T23:00:40.945Z,101117.31
2023-09-01T23:05:42.665Z,101129.03
2023-09-01T23:10:44.064Z,101129.66
2023-09-01T23:15:45.569Z,101126.84
2023-09-01T23:20:46.935Z,101128.63
2023-09-01T23:25:48.350Z,101131.06
2023-09-01T23:30:49.742Z,101132.66
2023-09-01T23:35:51.502Z,101138.94
2023-09-01T23:40:53.175Z,101132.25
2023-09-01T23:45:55.218Z,101148.22
2023-09-01T23:50:56.589Z,101138.69
2023-09-01T23:55:57.999Z,101140.50
